sensor_id;sensor_type;location;lat;lon;timestamp;P1;durP1;ratioP1;P2;durP2;ratioP2
6928;SDS011;3504;52.616;13.238;2023-12-22T00:01:46;12.50;;;3.80;;
6928;SDS011;3504;52.616;13.238;2023-12-22T00:06:46;8.83;;;2.70;;
6928;SDS011;3504;52.616;13.238;2023-12-22T00:11:48;12.67;;;3.03;;
6928;SDS011;3504;52.616;13.238;2023-12-22T00:16:49;7.07;;;2.73;;
6928;SDS011;3504;52.616;13.238;2023-12-22T00:21:49;11.37;;;3.27;;
6928;SDS011;3504;52.616;13.238;2023-12-22T00:26:50;13.27;;;3.47;;
6928;SDS011;3504;52.616;13.238;2023-12-22T00:31:50;12.93;;;3.10;;
6928;SDS011;3504;52.616;13.238;2023-12-22T00:36:51;15.10;;;3.40;;
6928;SDS011;3504;52.616;13.238;2023-12-22T00:41:51;15.83;;;3.63;;
6928;SDS011;3504;52.616;13.238;2023-12-22T00:46:52;16.60;;;3.43;;
6928;SDS011;3504;52.616;13.238;2023-12-22T00:51:53;13.60;;;3.93;;
6928;SDS011;3504;52.616;13.238;2023-12-22T00:56:54;14.27;;;3.50;;
6928;SDS011;3504;52.616;13.238;2023-12-22T01:01:54;12.40;;;4.00;;
6928;SDS011;3504;52.616;13.238;2023-12-22T01:06:55;14.37;;;4.00;;
6928;SDS011;3504;52.616;13.238;2023-12-22T01:11:55;12.07;;;3.93;;
6928;SDS011;3504;52.616;13.238;2023-12-22T01:16:56;14.40;;;4.67;;
6928;SDS011;3504;52.616;13.238;2023-12-22T01:21:58;13.10;;;3.60;;
6928;SDS011;3504;52.616;13.238;2023-12-22T01:26:59;12.67;;;3.40;;
6928;SDS011;3504;52.616;13.238;2023-12-22T01:31:59;19.73;;;4.17;;
6928;SDS011;3504;52.616;13.238;2023-12-22T01:37:00;16.53;;;3.50;;
6928;SDS011;3504;52.616;13.238;2023-12-22T01:42:01;13.70;;;3.87;;
6928;SDS011;3504;52.616;13.238;2023-12-22T01:47:01;14.77;;;3.63;;
6928;SDS011;3504;52.616;13.238;2023-12-22T01:52:02;13.10;;;4.27;;
6928;SDS011;3504;52.616;13.238;2023-12-22T01:57:03;17.07;;;3.83;;
6928;SDS011;3504;52.616;13.238;2023-12-22T02:02:04;16.10;;;3.60;;
6928;SDS011;3504;52.616;13.238;2023-12-22T02:07:04;13.63;;;3.17;;
6928;SDS011;3504;52.616;13.238;2023-12-22T02:12:08;11.67;;;3.20;;
6928;SDS011;3504;52.616;13.238;2023-12-22T02:17:20;13.57;;;3.20;;
6928;SDS011;3504;52.616;13.238;2023-12-22T02:22:40;12.90;;;3.73;;
6928;SDS011;3504;52.616;13.238;2023-12-22T02:27:44;13.60;;;3.50;;
6928;SDS011;3504;52.616;13.238;2023-12-22T02:32:50;17.80;;;3.70;;
6928;SDS011;3504;52.616;13.238;2023-12-22T02:37:56;13.40;;;3.60;;
6928;SDS011;3504;52.616;13.238;2023-12-22T02:42:58;11.73;;;3.20;;
6928;SDS011;3504;52.616;13.238;2023-12-22T02:48:01;9.50;;;3.33;;
6928;SDS011;3504;52.616;13.238;2023-12-22T02:53:01;9.30;;;3.23;;
6928;SDS011;3504;52.616;13.238;2023-12-22T02:58:04;12.07;;;3.07;;
6928;SDS011;3504;52.616;13.238;2023-12-22T03:03:05;10.03;;;2.77;;
6928;SDS011;3504;52.616;13.238;2023-12-22T03:08:06;13.80;;;3.20;;
6928;SDS011;3504;52.616;13.238;2023-12-22T03:13:06;12.30;;;2.93;;
6928;SDS011;3504;52.616;13.238;2023-12-22T03:18:07;13.77;;;2.47;;
6928;SDS011;3504;52.616;13.238;2023-12-22T03:23:07;12.03;;;2.63;;
6928;SDS011;3504;52.616;13.238;2023-12-22T03:28:08;10.13;;;2.87;;
6928;SDS011;3504;52.616;13.238;2023-12-22T03:33:08;14.63;;;2.93;;
6928;SDS011;3504;52.616;13.238;2023-12-22T03:38:09;14.23;;;3.20;;
6928;SDS011;3504;52.616;13.238;2023-12-22T03:43:09;10.33;;;2.80;;
6928;SDS011;3504;52.616;13.238;2023-12-22T03:48:10;8.33;;;2.17;;
6928;SDS011;3504;52.616;13.238;2023-12-22T03:53:10;10.23;;;2.40;;
6928;SDS011;3504;52.616;13.238;2023-12-22T03:58:11;8.53;;;2.70;;
6928;SDS011;3504;52.616;13.238;2023-12-22T04:03:12;3.73;;;1.87;;
6928;SDS011;3504;52.616;13.238;2023-12-22T04:08:13;7.40;;;1.80;;
6928;SDS011;3504;52.616;13.238;2023-12-22T04:13:14;5.17;;;1.77;;
6928;SDS011;3504;52.616;13.238;2023-12-22T04:18:14;2.77;;;1.30;;
6928;SDS011;3504;52.616;13.238;2023-12-22T04:23:15;4.43;;;1.33;;
6928;SDS011;3504;52.616;13.238;2023-12-22T04:28:16;5.47;;;2.00;;
6928;SDS011;3504;52.616;13.238;2023-12-22T04:33:16;6.73;;;1.57;;
6928;SDS011;3504;52.616;13.238;2023-12-22T04:38:17;6.23;;;1.93;;
6928;SDS011;3504;52.616;13.238;2023-12-22T04:43:17;8.23;;;2.57;;
6928;SDS011;3504;52.616;13.238;2023-12-22T04:48:18;4.90;;;1.70;;
6928;SDS011;3504;52.616;13.238;2023-12-22T04:53:18;4.77;;;1.50;;
6928;SDS011;3504;52.616;13.238;2023-12-22T04:58:19;4.00;;;1.30;;
6928;SDS011;3504;52.616;13.238;2023-12-22T05:03:19;5.30;;;1.67;;
6928;SDS011;3504;52.616;13.238;2023-12-22T05:08:20;4.00;;;1.27;;
6928;SDS011;3504;52.616;13.238;2023-12-22T05:13:20;3.00;;;1.43;;
6928;SDS011;3504;52.616;13.238;2023-12-22T05:18:21;5.77;;;1.73;;
6928;SDS011;3504;52.616;13.238;2023-12-22T05:23:21;5.00;;;1.10;;
6928;SDS011;3504;52.616;13.238;2023-12-22T05:28:22;3.03;;;1.27;;
6928;SDS011;3504;52.616;13.238;2023-12-22T05:33:22;4.70;;;1.30;;
6928;SDS011;3504;52.616;13.238;2023-12-22T05:38:23;1.93;;;1.67;;
6928;SDS011;3504;52.616;13.238;2023-12-22T05:43:23;7.80;;;1.53;;
6928;SDS011;3504;52.616;13.238;2023-12-22T05:48:26;4.17;;;1.20;;
6928;SDS011;3504;52.616;13.238;2023-12-22T05:53:27;7.43;;;2.17;;
6928;SDS011;3504;52.616;13.238;2023-12-22T05:58:28;4.97;;;1.43;;
6928;SDS011;3504;52.616;13.238;2023-12-22T06:03:29;2.87;;;1.17;;
6928;SDS011;3504;52.616;13.238;2023-12-22T06:08:29;3.33;;;1.50;;
6928;SDS011;3504;52.616;13.238;2023-12-22T06:13:30;4.67;;;1.53;;
6928;SDS011;3504;52.616;13.238;2023-12-22T06:18:31;6.63;;;1.60;;
6928;SDS011;3504;52.616;13.238;2023-12-22T06:23:31;5.47;;;1.97;;
6928;SDS011;3504;52.616;13.238;2023-12-22T06:28:32;4.67;;;1.10;;
6928;SDS011;3504;52.616;13.238;2023-12-22T06:33:32;3.13;;;1.47;;
6928;SDS011;3504;52.616;13.238;2023-12-22T06:38:33;3.07;;;1.03;;
6928;SDS011;3504;52.616;13.238;2023-12-22T06:43:33;3.73;;;1.43;;
6928;SDS011;3504;52.616;13.238;2023-12-22T06:48:34;3.07;;;1.27;;
6928;SDS011;3504;52.616;13.238;2023-12-22T06:53:37;3.63;;;1.53;;
6928;SDS011;3504;52.616;13.238;2023-12-22T06:58:38;5.23;;;1.43;;
6928;SDS011;3504;52.616;13.238;2023-12-22T07:03:38;4.73;;;1.37;;
6928;SDS011;3504;52.616;13.238;2023-12-22T07:08:38;5.83;;;1.80;;
6928;SDS011;3504;52.616;13.238;2023-12-22T07:13:39;7.07;;;1.80;;
6928;SDS011;3504;52.616;13.238;2023-12-22T07:18:40;7.27;;;1.57;;
6928;SDS011;3504;52.616;13.238;2023-12-22T07:23:40;7.47;;;1.97;;
6928;SDS011;3504;52.616;13.238;2023-12-22T07:28:43;10.70;;;2.00;;
6928;SDS011;3504;52.616;13.238;2023-12-22T07:33:44;7.27;;;1.87;;
6928;SDS011;3504;52.616;13.238;2023-12-22T07:38:44;6.73;;;2.10;;
6928;SDS011;3504;52.616;13.238;2023-12-22T07:43:45;9.00;;;2.07;;
6928;SDS011;3504;52.616;13.238;2023-12-22T07:48:45;8.63;;;1.83;;
6928;SDS011;3504;52.616;13.238;2023-12-22T07:53:46;5.63;;;1.50;;
6928;SDS011;3504;52.616;13.238;2023-12-22T07:58:46;9.00;;;1.67;;
6928;SDS011;3504;52.616;13.238;2023-12-22T08:03:47;4.20;;;1.50;;
6928;SDS011;3504;52.616;13.238;2023-12-22T08:08:47;6.37;;;1.67;;
6928;SDS011;3504;52.616;13.238;2023-12-22T08:13:48;4.63;;;2.00;;
6928;SDS011;3504;52.616;13.238;2023-12-22T08:18:48;4.17;;;1.33;;
6928;SDS011;3504;52.616;13.238;2023-12-22T08:23:49;4.23;;;1.37;;
6928;SDS011;3504;52.616;13.238;2023-12-22T08:28:49;5.93;;;2.37;;
6928;SDS011;3504;52.616;13.238;2023-12-22T08:33:50;5.97;;;1.60;;
6928;SDS011;3504;52.616;13.238;2023-12-22T08:38:50;5.07;;;1.83;;
6928;SDS011;3504;52.616;13.238;2023-12-22T08:43:51;6.10;;;1.43;;
6928;SDS011;3504;52.616;13.238;2023-12-22T08:48:51;6.70;;;1.60;;
6928;SDS011;3504;52.616;13.238;2023-12-22T08:53:53;8.73;;;1.73;;
6928;SDS011;3504;52.616;13.238;2023-12-22T08:58:57;10.43;;;2.30;;
6928;SDS011;3504;52.616;13.238;2023-12-22T09:04:00;12.23;;;2.20;;
6928;SDS011;3504;52.616;13.238;2023-12-22T09:09:01;7.77;;;2.23;;
6928;SDS011;3504;52.616;13.238;2023-12-22T09:14:04;12.63;;;3.07;;
6928;SDS011;3504;52.616;13.238;2023-12-22T09:19:09;12.70;;;2.50;;
6928;SDS011;3504;52.616;13.238;2023-12-22T09:24:10;10.33;;;1.90;;
6928;SDS011;3504;52.616;13.238;2023-12-22T09:29:12;8.97;;;2.73;;
6928;SDS011;3504;52.616;13.238;2023-12-22T09:34:13;8.93;;;2.50;;
6928;SDS011;3504;52.616;13.238;2023-12-22T09:39:14;8.57;;;2.30;;
6928;SDS011;3504;52.616;13.238;2023-12-22T09:44:18;8.10;;;2.57;;
6928;SDS011;3504;52.616;13.238;2023-12-22T09:49:23;12.00;;;2.60;;
6928;SDS011;3504;52.616;13.238;2023-12-22T09:54:24;8.93;;;2.50;;
6928;SDS011;3504;52.616;13.238;2023-12-22T09:59:26;11.17;;;3.60;;
6928;SDS011;3504;52.616;13.238;2023-12-22T10:04:28;11.23;;;3.33;;
6928;SDS011;3504;52.616;13.238;2023-12-22T10:09:29;17.63;;;4.00;;
6928;SDS011;3504;52.616;13.238;2023-12-22T10:14:30;13.13;;;3.13;;
6928;SDS011;3504;52.616;13.238;2023-12-22T10:19:32;12.63;;;3.67;;
6928;SDS011;3504;52.616;13.238;2023-12-22T10:24:36;16.03;;;3.33;;
6928;SDS011;3504;52.616;13.238;2023-12-22T10:29:39;14.60;;;3.23;;
6928;SDS011;3504;52.616;13.238;2023-12-22T10:34:40;14.43;;;2.63;;
6928;SDS011;3504;52.616;13.238;2023-12-22T10:39:41;14.93;;;3.53;;
6928;SDS011;3504;52.616;13.238;2023-12-22T10:44:42;13.47;;;3.50;;
6928;SDS011;3504;52.616;13.238;2023-12-22T10:49:43;13.80;;;3.23;;
6928;SDS011;3504;52.616;13.238;2023-12-22T10:54:46;10.20;;;3.03;;
6928;SDS011;3504;52.616;13.238;2023-12-22T10:59:48;9.97;;;2.67;;
6928;SDS011;3504;52.616;13.238;2023-12-22T11:05:02;9.43;;;2.90;;
6928;SDS011;3504;52.616;13.238;2023-12-22T11:10:08;14.27;;;3.17;;
6928;SDS011;3504;52.616;13.238;2023-12-22T11:15:11;8.03;;;3.20;;
6928;SDS011;3504;52.616;13.238;2023-12-22T11:20:14;15.67;;;3.37;;
6928;SDS011;3504;52.616;13.238;2023-12-22T11:25:15;10.07;;;3.10;;
6928;SDS011;3504;52.616;13.238;2023-12-22T11:30:21;13.17;;;3.30;;
6928;SDS011;3504;52.616;13.238;2023-12-22T11:35:25;12.87;;;3.00;;
6928;SDS011;3504;52.616;13.238;2023-12-22T11:40:27;9.83;;;3.10;;
6928;SDS011;3504;52.616;13.238;2023-12-22T11:45:32;9.10;;;2.80;;
6928;SDS011;3504;52.616;13.238;2023-12-22T11:50:33;10.77;;;2.93;;
6928;SDS011;3504;52.616;13.238;2023-12-22T12:01:09;8.20;;;2.63;;
6928;SDS011;3504;52.616;13.238;2023-12-22T12:06:15;15.37;;;2.23;;
6928;SDS011;3504;52.616;13.238;2023-12-22T12:17:06;9.50;;;2.30;;
6928;SDS011;3504;52.616;13.238;2023-12-22T12:22:08;8.00;;;2.90;;
6928;SDS011;3504;52.616;13.238;2023-12-22T12:27:11;11.90;;;2.50;;
6928;SDS011;3504;52.616;13.238;2023-12-22T12:32:17;15.10;;;3.10;;
6928;SDS011;3504;52.616;13.238;2023-12-22T12:37:17;11.03;;;2.87;;
6928;SDS011;3504;52.616;13.238;2023-12-22T12:42:19;9.37;;;2.73;;
6928;SDS011;3504;52.616;13.238;2023-12-22T12:47:22;14.07;;;2.90;;
6928;SDS011;3504;52.616;13.238;2023-12-22T12:52:23;8.73;;;2.87;;
6928;SDS011;3504;52.616;13.238;2023-12-22T12:57:25;7.87;;;2.63;;
6928;SDS011;3504;52.616;13.238;2023-12-22T13:02:26;7.23;;;2.80;;
6928;SDS011;3504;52.616;13.238;2023-12-22T13:07:27;11.67;;;2.50;;
6928;SDS011;3504;52.616;13.238;2023-12-22T13:12:28;13.83;;;2.80;;
6928;SDS011;3504;52.616;13.238;2023-12-22T13:17:28;11.30;;;2.90;;
6928;SDS011;3504;52.616;13.238;2023-12-22T13:22:29;9.47;;;3.20;;
6928;SDS011;3504;52.616;13.238;2023-12-22T13:27:30;13.57;;;2.50;;
6928;SDS011;3504;52.616;13.238;2023-12-22T13:32:30;10.10;;;2.73;;
6928;SDS011;3504;52.616;13.238;2023-12-22T13:37:31;7.43;;;2.40;;
6928;SDS011;3504;52.616;13.238;2023-12-22T13:42:32;11.80;;;2.57;;
6928;SDS011;3504;52.616;13.238;2023-12-22T13:47:32;10.80;;;3.03;;
6928;SDS011;3504;52.616;13.238;2023-12-22T13:52:33;12.90;;;2.63;;
6928;SDS011;3504;52.616;13.238;2023-12-22T13:57:36;7.97;;;2.67;;
6928;SDS011;3504;52.616;13.238;2023-12-22T14:02:37;10.50;;;2.97;;
6928;SDS011;3504;52.616;13.238;2023-12-22T14:07:37;8.90;;;2.57;;
6928;SDS011;3504;52.616;13.238;2023-12-22T14:12:38;8.87;;;2.53;;
6928;SDS011;3504;52.616;13.238;2023-12-22T14:17:42;6.20;;;2.10;;
6928;SDS011;3504;52.616;13.238;2023-12-22T14:22:43;7.83;;;2.57;;
6928;SDS011;3504;52.616;13.238;2023-12-22T14:27:43;9.27;;;2.57;;
6928;SDS011;3504;52.616;13.238;2023-12-22T14:32:44;8.30;;;2.83;;
6928;SDS011;3504;52.616;13.238;2023-12-22T14:37:44;9.23;;;3.20;;
6928;SDS011;3504;52.616;13.238;2023-12-22T14:42:46;5.33;;;1.63;;
6928;SDS011;3504;52.616;13.238;2023-12-22T14:47:46;7.60;;;1.90;;
6928;SDS011;3504;52.616;13.238;2023-12-22T14:52:47;7.67;;;2.73;;
6928;SDS011;3504;52.616;13.238;2023-12-22T14:57:48;8.20;;;1.70;;
6928;SDS011;3504;52.616;13.238;2023-12-22T15:02:48;7.07;;;2.40;;
6928;SDS011;3504;52.616;13.238;2023-12-22T15:07:49;9.90;;;2.67;;
6928;SDS011;3504;52.616;13.238;2023-12-22T15:12:49;7.30;;;2.00;;
6928;SDS011;3504;52.616;13.238;2023-12-22T15:17:50;7.03;;;2.07;;
6928;SDS011;3504;52.616;13.238;2023-12-22T15:22:51;6.20;;;2.40;;
6928;SDS011;3504;52.616;13.238;2023-12-22T15:27:51;10.13;;;4.30;;
6928;SDS011;3504;52.616;13.238;2023-12-22T15:32:52;6.47;;;2.03;;
6928;SDS011;3504;52.616;13.238;2023-12-22T15:37:52;9.97;;;2.77;;
6928;SDS011;3504;52.616;13.238;2023-12-22T15:42:53;8.57;;;2.57;;
6928;SDS011;3504;52.616;13.238;2023-12-22T15:47:53;9.20;;;3.00;;
6928;SDS011;3504;52.616;13.238;2023-12-22T15:52:54;14.03;;;2.67;;
6928;SDS011;3504;52.616;13.238;2023-12-22T15:57:54;12.30;;;2.87;;
6928;SDS011;3504;52.616;13.238;2023-12-22T16:02:55;16.57;;;2.43;;
6928;SDS011;3504;52.616;13.238;2023-12-22T16:07:55;10.33;;;2.43;;
6928;SDS011;3504;52.616;13.238;2023-12-22T16:12:58;11.80;;;3.10;;
6928;SDS011;3504;52.616;13.238;2023-12-22T16:17:59;11.20;;;2.57;;
6928;SDS011;3504;52.616;13.238;2023-12-22T16:23:02;11.33;;;2.60;;
6928;SDS011;3504;52.616;13.238;2023-12-22T16:28:06;5.10;;;2.10;;
6928;SDS011;3504;52.616;13.238;2023-12-22T16:33:07;9.27;;;2.53;;
6928;SDS011;3504;52.616;13.238;2023-12-22T16:38:07;14.33;;;2.97;;
6928;SDS011;3504;52.616;13.238;2023-12-22T16:43:08;7.07;;;2.27;;
6928;SDS011;3504;52.616;13.238;2023-12-22T16:48:08;6.07;;;2.00;;
6928;SDS011;3504;52.616;13.238;2023-12-22T16:53:09;8.43;;;2.60;;
6928;SDS011;3504;52.616;13.238;2023-12-22T16:58:10;5.27;;;1.70;;
6928;SDS011;3504;52.616;13.238;2023-12-22T17:03:10;9.60;;;2.47;;
6928;SDS011;3504;52.616;13.238;2023-12-22T17:08:11;7.23;;;2.30;;
6928;SDS011;3504;52.616;13.238;2023-12-22T17:13:13;6.30;;;2.30;;
6928;SDS011;3504;52.616;13.238;2023-12-22T17:18:13;6.17;;;2.33;;
6928;SDS011;3504;52.616;13.238;2023-12-22T17:23:17;7.33;;;2.00;;
6928;SDS011;3504;52.616;13.238;2023-12-22T17:28:17;6.10;;;2.23;;
6928;SDS011;3504;52.616;13.238;2023-12-22T17:33:18;5.50;;;2.40;;
6928;SDS011;3504;52.616;13.238;2023-12-22T17:38:18;6.67;;;2.20;;
6928;SDS011;3504;52.616;13.238;2023-12-22T17:43:19;9.07;;;2.63;;
6928;SDS011;3504;52.616;13.238;2023-12-22T17:48:19;7.57;;;2.73;;
6928;SDS011;3504;52.616;13.238;2023-12-22T17:53:20;7.13;;;1.93;;
6928;SDS011;3504;52.616;13.238;2023-12-22T17:58:25;9.70;;;2.90;;
6928;SDS011;3504;52.616;13.238;2023-12-22T18:03:26;11.77;;;3.57;;
6928;SDS011;3504;52.616;13.238;2023-12-22T18:08:26;9.60;;;3.47;;
6928;SDS011;3504;52.616;13.238;2023-12-22T18:13:26;10.70;;;3.07;;
6928;SDS011;3504;52.616;13.238;2023-12-22T18:18:28;8.30;;;1.90;;
6928;SDS011;3504;52.616;13.238;2023-12-22T18:23:29;10.13;;;2.80;;
6928;SDS011;3504;52.616;13.238;2023-12-22T18:28:30;10.37;;;2.50;;
6928;SDS011;3504;52.616;13.238;2023-12-22T18:33:30;6.40;;;2.13;;
6928;SDS011;3504;52.616;13.238;2023-12-22T18:38:31;9.53;;;2.50;;
6928;SDS011;3504;52.616;13.238;2023-12-22T18:43:31;7.80;;;2.80;;
6928;SDS011;3504;52.616;13.238;2023-12-22T18:48:35;11.07;;;2.47;;
6928;SDS011;3504;52.616;13.238;2023-12-22T18:53:35;9.00;;;3.10;;
6928;SDS011;3504;52.616;13.238;2023-12-22T18:58:36;11.13;;;2.87;;
6928;SDS011;3504;52.616;13.238;2023-12-22T19:03:39;8.70;;;2.40;;
6928;SDS011;3504;52.616;13.238;2023-12-22T19:08:46;10.23;;;2.40;;
6928;SDS011;3504;52.616;13.238;2023-12-22T19:13:46;9.20;;;2.40;;
6928;SDS011;3504;52.616;13.238;2023-12-22T19:18:47;8.70;;;2.67;;
6928;SDS011;3504;52.616;13.238;2023-12-22T19:23:47;9.43;;;2.40;;
6928;SDS011;3504;52.616;13.238;2023-12-22T19:28:48;8.93;;;2.67;;
6928;SDS011;3504;52.616;13.238;2023-12-22T19:33:49;8.73;;;2.60;;
6928;SDS011;3504;52.616;13.238;2023-12-22T19:38:49;12.10;;;2.40;;
6928;SDS011;3504;52.616;13.238;2023-12-22T19:43:50;7.33;;;2.50;;
6928;SDS011;3504;52.616;13.238;2023-12-22T19:48:51;10.87;;;2.77;;
6928;SDS011;3504;52.616;13.238;2023-12-22T19:53:52;7.03;;;2.40;;
6928;SDS011;3504;52.616;13.238;2023-12-22T19:58:52;9.90;;;2.77;;
6928;SDS011;3504;52.616;13.238;2023-12-22T20:03:53;7.90;;;3.17;;
6928;SDS011;3504;52.616;13.238;2023-12-22T20:08:54;6.83;;;2.50;;
6928;SDS011;3504;52.616;13.238;2023-12-22T20:13:54;5.87;;;1.90;;
6928;SDS011;3504;52.616;13.238;2023-12-22T20:18:55;7.20;;;1.80;;
6928;SDS011;3504;52.616;13.238;2023-12-22T20:23:56;10.60;;;3.23;;
6928;SDS011;3504;52.616;13.238;2023-12-22T20:28:57;7.87;;;2.97;;
6928;SDS011;3504;52.616;13.238;2023-12-22T20:33:57;5.13;;;2.07;;
6928;SDS011;3504;52.616;13.238;2023-12-22T20:38:59;9.47;;;3.60;;
6928;SDS011;3504;52.616;13.238;2023-12-22T20:44:00;6.63;;;2.50;;
6928;SDS011;3504;52.616;13.238;2023-12-22T20:49:00;7.07;;;2.47;;
6928;SDS011;3504;52.616;13.238;2023-12-22T20:54:03;3.40;;;1.57;;
6928;SDS011;3504;52.616;13.238;2023-12-22T20:59:03;5.27;;;2.10;;
6928;SDS011;3504;52.616;13.238;2023-12-22T21:04:04;3.60;;;1.37;;
6928;SDS011;3504;52.616;13.238;2023-12-22T21:09:04;4.60;;;1.53;;
6928;SDS011;3504;52.616;13.238;2023-12-22T21:14:05;5.33;;;1.67;;
6928;SDS011;3504;52.616;13.238;2023-12-22T21:19:06;4.47;;;1.40;;
6928;SDS011;3504;52.616;13.238;2023-12-22T21:24:08;2.70;;;1.50;;
6928;SDS011;3504;52.616;13.238;2023-12-22T21:29:09;2.43;;;1.60;;
6928;SDS011;3504;52.616;13.238;2023-12-22T21:34:10;3.33;;;1.30;;
6928;SDS011;3504;52.616;13.238;2023-12-22T21:39:10;3.67;;;1.50;;
6928;SDS011;3504;52.616;13.238;2023-12-22T21:44:11;3.73;;;1.57;;
6928;SDS011;3504;52.616;13.238;2023-12-22T21:49:12;1.70;;;1.23;;
6928;SDS011;3504;52.616;13.238;2023-12-22T21:54:13;1.33;;;1.23;;
6928;SDS011;3504;52.616;13.238;2023-12-22T21:59:13;3.57;;;1.17;;
6928;SDS011;3504;52.616;13.238;2023-12-22T22:04:14;1.43;;;1.17;;
6928;SDS011;3504;52.616;13.238;2023-12-22T22:09:14;2.70;;;1.00;;
6928;SDS011;3504;52.616;13.238;2023-12-22T22:14:15;1.10;;;1.00;;
6928;SDS011;3504;52.616;13.238;2023-12-22T22:19:16;3.60;;;0.90;;
6928;SDS011;3504;52.616;13.238;2023-12-22T22:24:16;1.37;;;0.97;;
6928;SDS011;3504;52.616;13.238;2023-12-22T22:29:17;2.20;;;1.03;;
6928;SDS011;3504;52.616;13.238;2023-12-22T22:34:17;2.57;;;0.97;;
6928;SDS011;3504;52.616;13.238;2023-12-22T22:39:18;2.77;;;1.43;;
6928;SDS011;3504;52.616;13.238;2023-12-22T22:44:18;3.53;;;1.50;;
6928;SDS011;3504;52.616;13.238;2023-12-22T22:49:19;2.13;;;1.43;;
6928;SDS011;3504;52.616;13.238;2023-12-22T22:54:20;1.70;;;1.20;;
6928;SDS011;3504;52.616;13.238;2023-12-22T22:59:21;2.23;;;1.50;;
6928;SDS011;3504;52.616;13.238;2023-12-22T23:04:21;3.03;;;1.30;;
6928;SDS011;3504;52.616;13.238;2023-12-22T23:09:22;2.23;;;1.30;;
6928;SDS011;3504;52.616;13.238;2023-12-22T23:14:23;2.47;;;1.20;;
6928;SDS011;3504;52.616;13.238;2023-12-22T23:19:23;2.50;;;1.00;;
6928;SDS011;3504;52.616;13.238;2023-12-22T23:24:24;1.33;;;1.00;;
6928;SDS011;3504;52.616;13.238;2023-12-22T23:29:24;2.43;;;1.57;;
6928;SDS011;3504;52.616;13.238;2023-12-22T23:34:25;1.63;;;1.03;;
6928;SDS011;3504;52.616;13.238;2023-12-22T23:39:25;1.37;;;1.27;;
6928;SDS011;3504;52.616;13.238;2023-12-22T23:44:26;3.73;;;1.27;;
6928;SDS011;3504;52.616;13.238;2023-12-22T23:49:26;2.20;;;1.13;;
6928;SDS011;3504;52.616;13.238;2023-12-22T23:54:27;2.27;;;1.30;;
6928;SDS011;3504;52.616;13.238;2023-12-22T23:59:27;2.13;;;0.83;;
